createdAt,value
2023-01-23T00:01:30.357Z,8.47
2023-01-23T00:03:57.979Z,8.48
2023-01-23T00:06:25.479Z,8.47
2023-01-23T00:08:52.253Z,8.48
2023-01-23T00:11:24.580Z,8.46
2023-01-23T00:13:51.713Z,8.46
2023-01-23T00:16:22.621Z,8.48
2023-01-23T00:18:50.241Z,8.48
2023-01-23T00:21:20.361Z,8.49
2023-01-23T00:23:49.828Z,8.49
2023-01-23T00:26:19.406Z,8.51
2023-01-23T00:28:47.280Z,8.49
2023-01-23T00:31:17.481Z,8.49
2023-01-23T00:33:44.793Z,8.50
2023-01-23T00:36:13.371Z,8.52
2023-01-23T00:38:40.800Z,8.53
2023-01-23T00:41:07.759Z,8.51
2023-01-23T00:43:34.368Z,8.52
2023-01-23T00:46:01.403Z,8.53
2023-01-23T00:48:28.334Z,8.52
2023-01-23T00:50:55.063Z,8.52
2023-01-23T00:53:22.055Z,8.54
2023-01-23T00:55:48.729Z,8.53
2023-01-23T00:58:15.477Z,8.53
2023-01-23T01:00:42.139Z,8.55
2023-01-23T01:03:09.238Z,8.54
2023-01-23T01:05:36.324Z,8.53
2023-01-23T01:08:03.304Z,8.52
2023-01-23T01:10:31.736Z,8.51
2023-01-23T01:12:59.974Z,8.51
2023-01-23T01:15:27.568Z,8.52
2023-01-23T01:17:54.311Z,8.51
2023-01-23T01:20:23.706Z,8.51
2023-01-23T01:22:50.929Z,8.51
2023-01-23T01:25:18.207Z,8.50
2023-01-23T01:27:45.390Z,8.51
2023-01-23T01:30:13.102Z,8.50
2023-01-23T01:32:41.366Z,8.51
2023-01-23T01:35:09.469Z,8.51
2023-01-23T01:37:37.762Z,8.51
2023-01-23T01:40:07.096Z,8.51
2023-01-23T01:42:49.744Z,8.50
2023-01-23T01:45:53.609Z,8.50
2023-01-23T01:48:24.453Z,8.50
2023-01-23T01:50:51.754Z,8.51
2023-01-23T01:53:19.440Z,8.51
2023-01-23T01:55:46.628Z,8.51
2023-01-23T01:58:14.208Z,8.50
2023-01-23T02:00:41.256Z,8.50
2023-01-23T02:03:08.245Z,8.52
2023-01-23T02:05:39.654Z,8.51
2023-01-23T02:08:17.213Z,8.50
2023-01-23T02:10:46.004Z,8.50
2023-01-23T02:13:33.812Z,8.51
2023-01-23T02:16:03.776Z,8.50
2023-01-23T02:18:32.711Z,8.50
2023-01-23T02:21:03.669Z,8.49
2023-01-23T02:23:30.204Z,8.49
2023-01-23T02:26:00.510Z,8.47
2023-01-23T02:28:38.680Z,8.48
2023-01-23T02:31:05.742Z,8.50
2023-01-23T02:33:32.562Z,8.49
2023-01-23T02:36:00.437Z,8.49
2023-01-23T02:38:32.486Z,8.49
2023-01-23T02:41:03.124Z,8.50
2023-01-23T02:43:36.081Z,8.49
2023-01-23T02:46:07.571Z,8.49
2023-01-23T02:48:34.667Z,8.50
2023-01-23T02:51:01.382Z,8.50
2023-01-23T02:53:28.030Z,8.51
2023-01-23T02:55:54.684Z,8.51
2023-01-23T02:58:39.909Z,8.52
2023-01-23T03:01:06.845Z,8.53
2023-01-23T03:03:33.598Z,8.54
2023-01-23T03:06:03.433Z,8.53
2023-01-23T03:08:36.249Z,8.54
2023-01-23T03:11:04.705Z,8.55
2023-01-23T03:13:31.550Z,8.54
2023-01-23T03:15:58.401Z,8.53
2023-01-23T03:18:27.695Z,8.54
2023-01-23T03:20:54.361Z,8.53
2023-01-23T03:23:20.996Z,8.53
2023-01-23T03:25:49.117Z,8.51
2023-01-23T03:28:34.382Z,8.51
2023-01-23T03:31:01.156Z,8.50
2023-01-23T03:33:28.097Z,8.50
2023-01-23T03:35:54.748Z,8.50
2023-01-23T03:38:21.404Z,8.52
2023-01-23T03:41:09.083Z,8.53
2023-01-23T03:43:35.725Z,8.52
2023-01-23T03:46:02.343Z,8.54
2023-01-23T03:48:28.958Z,8.54
2023-01-23T03:50:55.612Z,8.55
2023-01-23T03:53:23.407Z,8.55
2023-01-23T03:55:50.052Z,8.55
2023-01-23T03:58:16.823Z,8.55
2023-01-23T04:00:43.557Z,8.55
2023-01-23T04:03:10.447Z,8.55
2023-01-23T04:05:37.168Z,8.56
2023-01-23T04:08:03.978Z,8.55
2023-01-23T04:10:30.683Z,8.55
2023-01-23T04:12:59.930Z,8.55
2023-01-23T04:15:26.549Z,8.55
2023-01-23T04:17:53.205Z,8.56
2023-01-23T04:20:20.215Z,8.56
2023-01-23T04:22:47.122Z,8.55
2023-01-23T04:25:13.776Z,8.56
2023-01-23T04:27:41.462Z,8.54
2023-01-23T04:30:09.359Z,8.55
2023-01-23T04:32:36.046Z,8.54
2023-01-23T04:35:02.639Z,8.54
2023-01-23T04:37:29.395Z,8.53
2023-01-23T04:39:56.097Z,8.53
2023-01-23T04:42:22.915Z,8.54
2023-01-23T04:44:49.567Z,8.53
2023-01-23T04:47:16.364Z,8.53
2023-01-23T04:49:43.503Z,8.54
2023-01-23T04:52:10.077Z,8.52
2023-01-23T04:54:36.881Z,8.53
2023-01-23T04:57:05.039Z,8.52
2023-01-23T04:59:31.647Z,8.52
2023-01-23T05:01:58.296Z,8.51
2023-01-23T05:04:25.036Z,8.50
2023-01-23T05:06:51.702Z,8.50
2023-01-23T05:09:18.357Z,8.49
2023-01-23T05:11:45.047Z,8.49
2023-01-23T05:14:12.239Z,8.50
2023-01-23T05:16:38.976Z,8.50
2023-01-23T05:19:05.660Z,8.49
2023-01-23T05:21:32.316Z,8.50
2023-01-23T05:23:58.904Z,8.50
2023-01-23T05:26:25.563Z,8.50
2023-01-23T05:28:52.233Z,8.50
2023-01-23T05:31:18.932Z,8.50
2023-01-23T05:33:45.694Z,8.51
2023-01-23T05:36:12.372Z,8.51
2023-01-23T05:38:40.443Z,8.52
2023-01-23T05:41:07.087Z,8.51
2023-01-23T05:43:33.710Z,8.51
2023-01-23T05:46:01.644Z,8.50
2023-01-23T05:48:28.770Z,8.51
2023-01-23T05:50:55.517Z,8.49
2023-01-23T05:53:22.271Z,8.49
2023-01-23T05:55:48.937Z,8.47
2023-01-23T05:58:16.094Z,8.48
2023-01-23T06:00:42.850Z,8.47
2023-01-23T06:03:09.565Z,8.46
2023-01-23T06:05:36.168Z,8.46
2023-01-23T06:08:02.980Z,8.45
2023-01-23T06:10:29.606Z,8.46
2023-01-23T06:12:56.253Z,8.46
2023-01-23T06:15:22.864Z,8.47
2023-01-23T06:17:49.610Z,8.46
2023-01-23T06:20:16.547Z,8.46
2023-01-23T06:22:43.161Z,8.45
2023-01-23T06:25:10.313Z,8.45
2023-01-23T06:27:37.060Z,8.46
2023-01-23T06:30:04.204Z,8.46
2023-01-23T06:32:30.870Z,8.47
2023-01-23T06:34:57.488Z,8.47
2023-01-23T06:37:25.217Z,8.48
2023-01-23T06:39:51.904Z,8.48
2023-01-23T06:42:18.531Z,8.47
2023-01-23T06:44:45.220Z,8.47
2023-01-23T06:47:11.923Z,8.47
2023-01-23T06:49:38.780Z,8.48
2023-01-23T06:52:05.686Z,8.47
2023-01-23T06:54:32.317Z,8.47
2023-01-23T06:56:58.921Z,8.46
2023-01-23T06:59:25.664Z,8.47
2023-01-23T07:01:52.411Z,8.46
2023-01-23T07:04:19.065Z,8.47
2023-01-23T07:06:45.734Z,8.47
2023-01-23T07:09:12.402Z,8.48
2023-01-23T07:11:39.916Z,8.47
2023-01-23T07:14:06.612Z,8.48
2023-01-23T07:16:35.213Z,8.47
2023-01-23T07:19:03.478Z,8.48
2023-01-23T07:21:30.124Z,8.49
2023-01-23T07:23:56.854Z,8.49
2023-01-23T07:26:23.533Z,8.48
2023-01-23T07:28:50.218Z,8.49
2023-01-23T07:31:16.919Z,8.49
2023-01-23T07:33:43.681Z,8.50
2023-01-23T07:36:10.725Z,8.49
2023-01-23T07:38:37.412Z,8.50
2023-01-23T07:41:04.155Z,8.49
2023-01-23T07:43:30.787Z,8.49
2023-01-23T07:46:00.871Z,8.48
2023-01-23T07:48:29.449Z,8.47
2023-01-23T07:50:56.132Z,8.45
2023-01-23T07:53:22.871Z,8.43
2023-01-23T07:55:49.515Z,8.41
2023-01-23T07:58:16.108Z,8.37
2023-01-23T08:00:42.849Z,8.36
2023-01-23T08:03:09.536Z,8.34
2023-01-23T08:05:36.202Z,8.33
2023-01-23T08:08:13.094Z,8.30
2023-01-23T08:10:40.935Z,8.27
2023-01-23T08:13:07.648Z,8.26
2023-01-23T08:15:34.322Z,8.25
2023-01-23T08:18:01.020Z,8.23
2023-01-23T08:20:27.892Z,8.22
2023-01-23T08:22:54.560Z,8.20
2023-01-23T08:25:21.173Z,8.20
2023-01-23T08:27:47.839Z,8.20
2023-01-23T08:30:14.692Z,8.18
2023-01-23T08:32:41.336Z,8.18
2023-01-23T08:35:08.423Z,8.17
2023-01-23T08:37:36.078Z,8.19
2023-01-23T08:40:03.572Z,8.20
2023-01-23T08:42:30.289Z,8.21
2023-01-23T08:44:56.929Z,8.23
2023-01-23T08:47:23.863Z,8.24
2023-01-23T08:49:50.559Z,8.26
2023-01-23T08:52:17.292Z,8.28
2023-01-23T08:54:43.889Z,8.30
2023-01-23T08:57:10.613Z,8.31
2023-01-23T08:59:37.228Z,8.33
2023-01-23T09:02:03.982Z,8.35
2023-01-23T09:04:30.885Z,8.37
2023-01-23T09:06:57.523Z,8.39
2023-01-23T09:09:24.303Z,8.40
2023-01-23T09:11:51.020Z,8.41
2023-01-23T09:14:17.954Z,8.43
2023-01-23T09:16:44.660Z,8.45
2023-01-23T09:19:12.773Z,8.46
2023-01-23T09:21:39.401Z,8.49
2023-01-23T09:24:06.470Z,8.51
2023-01-23T09:26:33.193Z,8.54
2023-01-23T09:28:59.978Z,8.55
2023-01-23T09:31:26.666Z,8.56
2023-01-23T09:33:53.303Z,8.58
2023-01-23T09:36:27.485Z,8.61
2023-01-23T09:39:00.795Z,8.62
2023-01-23T09:41:28.854Z,8.65
2023-01-23T09:44:19.325Z,8.67
2023-01-23T09:46:55.813Z,8.71
2023-01-23T09:49:37.237Z,8.74
2023-01-23T09:52:12.142Z,8.77
2023-01-23T09:54:53.070Z,8.80
2023-01-23T09:57:41.830Z,8.83
2023-01-23T10:00:41.064Z,8.87
2023-01-23T10:03:15.934Z,8.89
2023-01-23T10:05:54.596Z,8.93
2023-01-23T10:08:40.044Z,8.98
2023-01-23T10:11:21.179Z,9.02
2023-01-23T10:14:32.336Z,9.05
2023-01-23T10:17:14.732Z,9.08
2023-01-23T10:19:48.473Z,9.11
2023-01-23T10:22:24.974Z,9.14
2023-01-23T10:24:56.357Z,9.18
2023-01-23T10:27:44.768Z,9.22
2023-01-23T10:30:19.198Z,9.27
2023-01-23T10:33:17.046Z,9.32
2023-01-23T10:35:51.852Z,9.37
2023-01-23T10:38:47.842Z,9.39
2023-01-23T10:41:22.360Z,9.42
2023-01-23T10:43:52.378Z,9.45
2023-01-23T10:46:28.996Z,9.49
2023-01-23T10:48:56.369Z,9.54
2023-01-23T10:51:31.721Z,9.56
2023-01-23T10:54:32.373Z,9.58
2023-01-23T10:57:21.030Z,9.60
2023-01-23T11:00:04.584Z,9.64
2023-01-23T11:02:34.180Z,9.68
2023-01-23T11:05:02.423Z,9.72
2023-01-23T11:07:31.416Z,9.75
2023-01-23T11:10:23.339Z,9.81
2023-01-23T11:12:54.706Z,9.87
2023-01-23T11:15:23.318Z,9.90
2023-01-23T11:17:52.239Z,9.92
2023-01-23T11:20:33.371Z,9.94
2023-01-23T11:23:10.809Z,9.97
2023-01-23T11:25:43.164Z,10.00
2023-01-23T11:28:42.477Z,10.01
2023-01-23T11:31:16.193Z,10.01
2023-01-23T11:33:52.161Z,10.03
2023-01-23T11:36:18.840Z,10.03
2023-01-23T11:38:52.902Z,10.02
2023-01-23T11:41:25.168Z,10.01
2023-01-23T11:43:52.915Z,10.02
2023-01-23T11:47:10.164Z,10.04
2023-01-23T11:50:14.305Z,10.04
2023-01-23T11:52:49.622Z,10.05
2023-01-23T11:55:28.518Z,10.07
2023-01-23T11:58:17.866Z,10.09
2023-01-23T12:00:52.537Z,10.14
2023-01-23T12:03:41.232Z,10.19
2023-01-23T12:06:22.899Z,10.25
2023-01-23T12:09:04.611Z,10.31
2023-01-23T12:12:00.261Z,10.35
2023-01-23T12:14:50.825Z,10.36
2023-01-23T12:17:46.453Z,10.37
2023-01-23T12:20:22.867Z,10.37
2023-01-23T12:23:16.832Z,10.36
2023-01-23T12:25:53.546Z,10.35
2023-01-23T12:28:42.077Z,10.38
2023-01-23T12:31:34.856Z,10.41
2023-01-23T12:34:22.937Z,10.44
2023-01-23T12:37:25.748Z,10.52
2023-01-23T12:40:08.626Z,10.60
2023-01-23T12:43:04.861Z,10.63
2023-01-23T12:45:33.709Z,10.66
2023-01-23T12:48:13.836Z,10.71
2023-01-23T12:50:47.745Z,10.74
2023-01-23T12:53:20.639Z,10.78
2023-01-23T12:55:56.163Z,10.81
2023-01-23T12:58:27.062Z,10.84
2023-01-23T13:01:05.173Z,10.89
2023-01-23T13:03:47.537Z,10.93
2023-01-23T13:06:14.158Z,10.97
2023-01-23T13:09:05.548Z,11.06
2023-01-23T13:11:46.419Z,11.22
2023-01-23T13:14:36.879Z,11.35
2023-01-23T13:17:29.947Z,11.48
2023-01-23T13:20:38.340Z,11.59
2023-01-23T13:23:37.836Z,11.70
2023-01-23T13:26:16.446Z,11.76
2023-01-23T13:28:45.949Z,11.77
2023-01-23T13:31:27.989Z,11.75
2023-01-23T13:34:01.077Z,11.67
2023-01-23T13:36:37.721Z,11.59
2023-01-23T13:39:17.758Z,11.54
2023-01-23T13:41:46.365Z,11.51
2023-01-23T13:44:35.871Z,11.48
2023-01-23T14:24:32.514Z,10.84
2023-01-23T14:27:07.307Z,10.79
2023-01-23T14:29:34.858Z,10.73
2023-01-23T14:32:01.641Z,10.66
2023-01-23T14:34:28.661Z,10.61
2023-01-23T14:37:04.055Z,10.55
2023-01-23T14:39:33.635Z,10.50
2023-01-23T14:42:02.607Z,10.46
2023-01-23T14:44:43.993Z,10.42
2023-01-23T14:47:34.361Z,10.39
2023-01-23T14:50:02.808Z,10.35
2023-01-23T14:52:31.562Z,10.31
2023-01-23T14:55:05.850Z,10.28
2023-01-23T14:57:35.657Z,10.24
2023-01-23T15:00:03.670Z,10.23
2023-01-23T15:02:33.383Z,10.21
2023-01-23T15:05:09.076Z,10.17
2023-01-23T15:07:45.107Z,10.14
2023-01-23T15:10:30.654Z,10.10
2023-01-23T15:13:04.116Z,10.08
2023-01-23T15:15:33.498Z,10.05
2023-01-23T15:18:02.157Z,10.03
2023-01-23T15:20:29.085Z,10.00
2023-01-23T15:22:55.721Z,9.97
2023-01-23T15:25:29.911Z,9.98
2023-01-23T15:27:56.597Z,9.95
2023-01-23T15:30:35.437Z,9.95
2023-01-23T15:33:07.338Z,9.95
2023-01-23T15:35:38.920Z,9.92
2023-01-23T15:38:08.638Z,9.91
2023-01-23T15:40:38.291Z,9.90
2023-01-23T15:43:05.730Z,9.89
2023-01-23T15:45:33.982Z,9.89
2023-01-23T15:48:01.316Z,9.87
2023-01-23T15:50:29.047Z,9.85
2023-01-23T15:52:56.243Z,9.85
2023-01-23T15:55:27.894Z,9.84
2023-01-23T15:57:55.527Z,9.84
2023-01-23T16:00:27.660Z,9.82
2023-01-23T16:02:57.363Z,9.81
2023-01-23T16:05:31.094Z,9.80
2023-01-23T16:08:01.180Z,9.75
2023-01-23T16:10:38.317Z,9.73
2023-01-23T16:13:05.288Z,9.71
2023-01-23T16:15:34.571Z,9.69
2023-01-23T16:18:04.659Z,9.68
2023-01-23T16:20:35.237Z,9.66
2023-01-23T16:23:14.631Z,9.65
2023-01-23T16:25:46.365Z,9.63
2023-01-23T16:28:14.743Z,9.63
2023-01-23T16:30:41.593Z,9.60
2023-01-23T16:33:08.823Z,9.59
2023-01-23T16:35:35.556Z,9.58
2023-01-23T16:38:02.268Z,9.54
2023-01-23T16:40:33.777Z,9.50
2023-01-23T16:43:03.025Z,9.48
2023-01-23T16:45:31.658Z,9.46
2023-01-23T16:47:58.968Z,9.45
2023-01-23T16:50:47.624Z,9.43
2023-01-23T16:53:26.818Z,9.40
2023-01-23T16:55:55.773Z,9.37
2023-01-23T16:58:26.477Z,9.34
2023-01-23T17:01:00.140Z,9.32
2023-01-23T17:03:31.533Z,9.28
2023-01-23T17:05:58.396Z,9.25
2023-01-23T17:08:25.953Z,9.23
2023-01-23T17:10:59.591Z,9.22
2023-01-23T17:13:27.098Z,9.22
2023-01-23T17:15:56.457Z,9.20
2023-01-23T17:18:25.854Z,9.21
2023-01-23T17:20:56.097Z,9.21
2023-01-23T17:23:24.204Z,9.22
2023-01-23T17:26:00.281Z,9.22
2023-01-23T17:28:27.756Z,9.23
2023-01-23T17:30:55.520Z,9.24
2023-01-23T17:33:31.188Z,9.24
2023-01-23T17:35:58.098Z,9.26
2023-01-23T17:38:32.184Z,9.26
2023-01-23T17:40:58.849Z,9.28
2023-01-23T17:43:25.506Z,9.33
2023-01-23T17:45:52.977Z,9.34
2023-01-23T17:48:28.431Z,9.32
2023-01-23T17:50:55.935Z,9.31
2023-01-23T17:53:24.062Z,9.30
2023-01-23T17:55:52.774Z,9.28
2023-01-23T17:58:20.647Z,9.23
2023-01-23T18:00:51.043Z,9.18
2023-01-23T18:03:23.051Z,9.16
2023-01-23T18:05:49.783Z,9.09
2023-01-23T18:08:26.482Z,9.05
2023-01-23T18:10:56.495Z,9.03
2023-01-23T18:14:21.565Z,9.00
2023-01-23T18:16:49.889Z,8.98
2023-01-23T18:19:19.621Z,8.94
2023-01-23T18:21:48.860Z,8.90
2023-01-23T18:24:36.993Z,8.87
2023-01-23T18:27:20.838Z,8.89
2023-01-23T18:30:07.048Z,8.91
2023-01-23T18:33:07.313Z,8.96
2023-01-23T18:36:23.099Z,8.97
2023-01-23T18:39:10.805Z,9.00
2023-01-23T18:41:46.040Z,9.03
2023-01-23T18:44:22.465Z,9.08
2023-01-23T18:46:49.271Z,9.12
2023-01-23T18:49:27.733Z,9.16
2023-01-23T18:52:07.390Z,9.18
2023-01-23T18:54:54.451Z,9.22
2023-01-23T18:57:30.015Z,9.25
2023-01-23T19:00:24.738Z,9.24
2023-01-23T19:02:55.352Z,9.25
2023-01-23T19:05:33.015Z,9.27
2023-01-23T19:08:02.413Z,9.32
2023-01-23T19:10:40.089Z,9.33
2023-01-23T19:13:21.106Z,9.34
2023-01-23T19:16:31.044Z,9.36
2023-01-23T19:19:15.290Z,9.37
2023-01-23T19:21:43.627Z,9.38
2023-01-23T19:24:11.405Z,9.39
2023-01-23T19:26:40.912Z,9.40
2023-01-23T19:29:21.028Z,9.41
2023-01-23T19:32:03.544Z,9.41
2023-01-23T19:34:32.960Z,9.43
2023-01-23T19:36:59.584Z,9.43
2023-01-23T19:39:26.280Z,9.45
2023-01-23T19:41:53.462Z,9.45
2023-01-23T19:44:24.230Z,9.44
2023-01-23T19:46:52.473Z,9.43
2023-01-23T19:49:19.389Z,9.42
2023-01-23T19:51:46.174Z,9.42
2023-01-23T19:54:14.517Z,9.42
2023-01-23T19:56:42.380Z,9.40
2023-01-23T19:59:09.492Z,9.40
2023-01-23T20:01:47.464Z,9.38
2023-01-23T20:04:20.951Z,9.37
2023-01-23T20:06:49.204Z,9.36
2023-01-23T20:09:16.183Z,9.34
2023-01-23T20:11:43.555Z,9.31
2023-01-23T20:14:11.388Z,9.29
2023-01-23T20:16:40.417Z,9.27
2023-01-23T20:19:07.574Z,9.24
2023-01-23T20:21:34.514Z,9.23
2023-01-23T20:24:01.270Z,9.19
2023-01-23T20:26:27.984Z,9.14
2023-01-23T20:28:54.704Z,9.12
2023-01-23T20:31:21.842Z,9.10
2023-01-23T20:33:48.733Z,9.06
2023-01-23T20:36:16.053Z,9.03
2023-01-23T20:38:43.163Z,9.03
2023-01-23T20:41:18.915Z,9.00
2023-01-23T20:43:46.243Z,9.01
2023-01-23T20:46:14.938Z,8.98
2023-01-23T20:48:46.587Z,8.95
2023-01-23T20:51:15.481Z,8.92
2023-01-23T20:53:42.937Z,8.87
2023-01-23T20:56:10.892Z,8.82
2023-01-23T20:58:59.787Z,8.79
2023-01-23T21:01:29.615Z,8.75
2023-01-23T21:03:56.523Z,8.72
2023-01-23T21:06:23.423Z,8.69
2023-01-23T21:08:50.136Z,8.64
2023-01-23T21:11:19.861Z,8.63
2023-01-23T21:13:55.730Z,8.60
2023-01-23T21:16:22.458Z,8.56
2023-01-23T21:18:49.129Z,8.51
2023-01-23T21:21:19.833Z,8.47
2023-01-23T21:23:49.306Z,8.45
2023-01-23T21:26:23.291Z,8.42
2023-01-23T21:28:52.482Z,8.40
2023-01-23T21:31:30.276Z,8.39
2023-01-23T21:34:01.129Z,8.38
2023-01-23T21:36:29.055Z,8.36
2023-01-23T21:38:56.044Z,8.38
2023-01-23T21:41:22.950Z,8.37
2023-01-23T21:43:49.964Z,8.38
2023-01-23T21:46:17.297Z,8.38
2023-01-23T21:48:44.153Z,8.37
2023-01-23T21:51:13.702Z,8.36
2023-01-23T21:53:42.952Z,8.37
2023-01-23T21:56:10.705Z,8.36
2023-01-23T21:58:37.654Z,8.35
2023-01-23T22:01:30.157Z,8.34
2023-01-23T22:03:57.457Z,8.29
2023-01-23T22:06:24.132Z,8.28
2023-01-23T22:08:50.959Z,8.25
2023-01-23T22:11:17.612Z,8.22
2023-01-23T22:13:44.490Z,8.20
2023-01-23T22:16:12.346Z,8.15
2023-01-23T22:18:39.056Z,8.12
2023-01-23T22:21:06.870Z,8.06
2023-01-23T22:23:34.072Z,7.98
2023-01-23T22:26:08.067Z,7.90
2023-01-23T22:28:35.553Z,7.87
2023-01-23T22:31:09.980Z,7.83
2023-01-23T22:33:40.893Z,7.75
2023-01-23T22:36:09.749Z,7.71
2023-01-23T22:38:36.555Z,7.63
2023-01-23T22:41:05.725Z,7.56
2023-01-23T22:43:33.411Z,7.49
2023-01-23T22:46:19.349Z,7.45
2023-01-23T22:48:46.316Z,7.44
2023-01-23T22:51:24.187Z,7.41
2023-01-23T22:53:52.078Z,7.38
2023-01-23T22:56:18.965Z,7.34
2023-01-23T22:58:47.339Z,7.25
2023-01-23T23:01:14.576Z,7.20
2023-01-23T23:03:41.544Z,7.14
2023-01-23T23:06:11.263Z,7.09
2023-01-23T23:08:38.126Z,7.04
2023-01-23T23:11:08.379Z,6.99
2023-01-23T23:13:37.353Z,6.97
2023-01-23T23:16:17.851Z,6.93
2023-01-23T23:18:45.995Z,6.92
2023-01-23T23:21:16.278Z,6.83
2023-01-23T23:23:43.159Z,6.82
2023-01-23T23:26:10.889Z,6.81
2023-01-23T23:28:38.946Z,6.81
2023-01-23T23:31:07.764Z,6.85
2023-01-23T23:33:36.338Z,6.84
2023-01-23T23:36:03.122Z,6.83
2023-01-23T23:38:29.701Z,6.81
2023-01-23T23:40:58.318Z,6.67
2023-01-23T23:43:25.484Z,6.65
2023-01-23T23:45:57.467Z,6.63
2023-01-23T23:48:25.281Z,6.68
2023-01-23T23:50:52.223Z,6.65
2023-01-23T23:53:19.400Z,6.59
2023-01-23T23:55:46.677Z,6.59
2023-01-23T23:58:13.753Z,6.59
